createdAt,value
2017-06-05T02:23:14.398Z,1.77
2017-06-05T02:25:43.868Z,1.85
2017-06-05T02:28:13.378Z,2.45
2017-06-05T02:30:42.875Z,1.70
2017-06-05T02:33:12.424Z,2.10
2017-06-05T02:35:41.941Z,2.20
2017-06-05T02:38:11.415Z,2.10
2017-06-05T02:40:40.955Z,2.27
2017-06-05T02:43:10.415Z,2.17
2017-06-05T02:45:39.909Z,2.70
2017-06-05T02:48:09.417Z,2.50
2017-06-05T02:50:38.990Z,2.10
2017-06-05T02:53:08.539Z,1.65
2017-06-05T02:55:38.002Z,2.53
2017-06-05T02:58:07.509Z,2.30
2017-06-05T03:00:37.101Z,2.40
2017-06-05T03:03:06.594Z,2.27
2017-06-05T03:05:36.080Z,2.27
2017-06-05T03:08:05.577Z,3.10
2017-06-05T03:10:35.064Z,2.27
2017-06-05T03:13:04.569Z,2.53
2017-06-05T10:53:05.083Z,2.33
2017-06-05T10:55:34.566Z,1.90
2017-06-05T10:58:04.058Z,2.35
2017-06-05T11:00:33.602Z,1.60
2017-06-05T11:03:03.096Z,1.80
2017-06-05T11:05:32.610Z,1.92
2017-06-05T11:08:02.132Z,1.90
2017-06-05T11:10:31.651Z,1.80
2017-06-05T11:13:01.160Z,1.85
2017-06-05T11:15:30.632Z,2.03
2017-06-05T11:18:00.170Z,2.20
2017-06-05T11:20:29.668Z,2.10
2017-06-05T11:22:59.162Z,1.70
2017-06-05T11:25:28.771Z,2.00
2017-06-05T11:27:58.311Z,1.80
2017-06-05T11:30:27.804Z,1.40
2017-06-05T11:32:57.428Z,1.90
2017-06-05T11:35:26.934Z,1.80
2017-06-05T11:37:56.446Z,1.60
2017-06-05T11:40:25.920Z,1.90
2017-06-05T11:42:55.451Z,1.73
2017-06-05T11:45:24.936Z,1.97
2017-06-05T11:47:54.454Z,1.73
2017-06-05T11:50:24.123Z,1.60
2017-06-05T11:52:53.671Z,1.80
2017-06-05T11:55:23.149Z,1.63
2017-06-05T11:57:52.637Z,1.70
2017-06-05T12:00:22.128Z,1.80
2017-06-05T12:02:51.800Z,1.80
2017-06-05T12:05:21.300Z,1.77
2017-06-05T12:07:51.004Z,1.73
2017-06-05T12:10:20.518Z,1.63
2017-06-05T12:12:49.998Z,1.80
2017-06-05T12:15:19.494Z,1.60
2017-06-05T12:17:49.063Z,1.60
2017-06-05T12:20:18.593Z,1.47
2017-06-05T12:22:48.081Z,1.70
2017-06-05T12:25:17.712Z,1.63
2017-06-05T12:27:47.219Z,1.50
2017-06-05T12:30:16.774Z,1.60
2017-06-05T12:32:46.269Z,1.47
2017-06-05T12:35:15.746Z,1.77
2017-06-05T12:37:45.267Z,1.60
2017-06-05T12:40:14.760Z,1.67
2017-06-05T12:42:44.456Z,1.83
2017-06-05T12:45:13.956Z,1.70
2017-06-05T12:47:43.432Z,1.70
2017-06-05T12:50:13.103Z,1.50
2017-06-05T12:52:42.576Z,1.43
2017-06-05T12:55:12.123Z,1.67
2017-06-05T12:57:41.650Z,1.50
2017-06-05T13:00:11.208Z,1.37
2017-06-05T13:02:40.735Z,1.40
2017-06-05T13:05:10.402Z,1.70
2017-06-05T13:07:39.901Z,1.50
2017-06-05T13:10:09.395Z,1.97
2017-06-05T13:12:39.033Z,1.23
2017-06-05T13:15:08.557Z,1.30
2017-06-05T13:17:38.071Z,1.90
2017-06-05T13:20:07.580Z,1.20
2017-06-05T13:22:37.089Z,1.47
2017-06-05T13:25:06.565Z,1.80
2017-06-05T13:27:36.060Z,1.80
2017-06-05T13:30:05.532Z,1.93
2017-06-05T13:32:35.044Z,1.57
2017-06-05T13:35:04.546Z,1.77
2017-06-05T13:37:34.051Z,1.53
2017-06-05T13:40:03.571Z,1.37
2017-06-05T13:42:33.056Z,1.60
2017-06-05T13:45:02.773Z,1.97
2017-06-05T13:47:32.231Z,1.63
2017-06-05T13:50:01.727Z,1.50
2017-06-05T13:52:31.392Z,1.83
2017-06-05T13:55:00.895Z,1.63
2017-06-05T13:57:30.389Z,1.50
2017-06-05T13:59:59.913Z,1.37
2017-06-05T14:02:29.401Z,1.70
2017-06-05T14:04:58.896Z,1.67
2017-06-05T14:07:28.373Z,1.30
2017-06-05T14:09:57.889Z,1.40
2017-06-05T14:12:27.396Z,1.30
2017-06-05T14:14:56.885Z,1.40
2017-06-05T14:17:26.388Z,1.70
2017-06-05T14:19:55.929Z,1.50
2017-06-05T14:22:25.429Z,1.50
2017-06-05T14:24:54.936Z,1.60
2017-06-05T14:27:24.404Z,1.73
2017-06-05T14:29:53.916Z,1.50
2017-06-05T14:32:23.391Z,1.90
2017-06-05T14:34:53.127Z,1.67
2017-06-05T14:37:22.608Z,1.60
2017-06-05T14:39:52.191Z,1.70
2017-06-05T14:42:21.725Z,1.40
2017-06-05T14:44:51.209Z,1.57
2017-06-05T14:47:20.713Z,1.30
2017-06-05T14:49:50.228Z,1.70
2017-06-05T14:52:19.734Z,1.43
2017-06-05T14:54:49.346Z,1.40
2017-06-05T14:57:18.835Z,1.30
2017-06-05T14:59:48.348Z,1.53
2017-06-05T15:02:17.843Z,1.43
2017-06-05T15:04:47.352Z,1.40
2017-06-05T15:07:16.832Z,1.60
2017-06-05T15:09:46.337Z,1.40
2017-06-05T15:12:15.831Z,1.60
2017-06-05T15:14:45.347Z,1.47
2017-06-05T16:36:25.899Z,5.50
2017-06-05T16:38:55.452Z,4.93
2017-06-05T16:41:24.973Z,4.07
2017-06-05T16:43:54.587Z,3.80
2017-06-05T16:46:24.221Z,3.63
2017-06-05T16:48:53.712Z,3.23
2017-06-05T16:51:23.263Z,2.77
2017-06-05T16:53:52.822Z,3.10
2017-06-05T16:56:22.321Z,2.90
2017-06-05T16:58:51.861Z,2.50
2017-06-05T17:01:21.352Z,2.90
2017-06-05T17:03:50.857Z,2.73
2017-06-05T17:06:20.335Z,2.50
2017-06-05T17:08:49.860Z,2.50
2017-06-05T17:11:19.372Z,2.50
2017-06-05T17:13:48.917Z,2.40
2017-06-05T17:16:18.417Z,2.70
2017-06-05T17:18:47.951Z,2.70
2017-06-05T17:21:17.428Z,2.33
2017-06-05T17:23:47.059Z,2.37
2017-06-05T17:26:16.580Z,2.50
2017-06-05T17:28:46.155Z,2.63
2017-06-05T17:31:15.683Z,2.33
2017-06-05T17:33:45.155Z,2.70
2017-06-05T17:36:14.667Z,2.90
2017-06-05T17:38:44.152Z,2.87
2017-06-05T17:41:13.664Z,2.80
2017-06-05T17:43:43.234Z,2.67
2017-06-05T17:46:12.743Z,2.50
2017-06-05T17:48:42.351Z,2.67
2017-06-05T17:51:11.832Z,2.67
2017-06-05T17:53:41.329Z,2.50
2017-06-05T17:56:10.881Z,2.30
2017-06-05T17:58:40.371Z,2.60
2017-06-05T18:01:09.869Z,2.60
2017-06-05T18:03:39.397Z,2.70
2017-06-05T18:06:08.887Z,2.93
2017-06-05T18:08:38.417Z,2.40
2017-06-05T18:11:07.907Z,2.83
2017-06-05T18:13:37.452Z,2.30
2017-06-05T18:16:06.917Z,2.40
2017-06-05T18:18:36.441Z,2.60
2017-06-05T18:21:05.935Z,2.17
2017-06-05T18:23:35.456Z,2.30
2017-06-05T18:26:04.949Z,2.60
2017-06-05T18:28:34.497Z,2.40
2017-06-05T18:31:04.023Z,2.20
2017-06-05T18:33:33.479Z,2.20
2017-06-05T18:36:02.988Z,2.50
2017-06-05T18:38:32.473Z,2.50
2017-06-05T18:41:01.976Z,2.53
2017-06-05T18:43:31.536Z,2.53
2017-06-05T18:46:01.071Z,2.40
2017-06-05T18:48:30.555Z,2.40
2017-06-05T18:51:00.071Z,2.40
2017-06-05T18:53:29.589Z,2.13
2017-06-05T18:55:59.270Z,2.10
2017-06-05T18:58:28.741Z,2.10
2017-06-05T19:00:58.273Z,2.80
2017-06-05T19:03:27.764Z,2.70
2017-06-05T19:05:57.292Z,2.27
2017-06-05T19:08:26.917Z,2.50
2017-06-05T19:10:56.425Z,2.60
2017-06-05T19:13:25.920Z,2.60
2017-06-05T19:15:55.446Z,2.33
2017-06-05T19:18:24.924Z,2.93
2017-06-05T19:20:54.473Z,3.77
2017-06-05T19:23:24.564Z,4.00
2017-06-05T19:25:54.091Z,4.37
2017-06-05T19:28:23.573Z,3.90
2017-06-05T19:30:53.113Z,3.20
2017-06-05T19:33:22.608Z,3.67
2017-06-05T19:35:52.102Z,2.90
2017-06-05T19:38:21.592Z,4.00
2017-06-05T19:40:51.078Z,3.37
2017-06-05T19:43:20.604Z,3.07
2017-06-05T19:45:50.126Z,2.80
2017-06-05T19:48:19.677Z,3.17
2017-06-05T19:50:49.187Z,2.63
2017-06-05T19:53:18.673Z,2.87
2017-06-05T19:55:48.238Z,2.97
2017-06-05T19:58:17.710Z,2.60
2017-06-05T20:00:47.234Z,2.30
2017-06-05T20:03:16.731Z,2.43
2017-06-05T20:05:46.233Z,2.60
2017-06-05T20:08:15.745Z,2.30
2017-06-05T20:10:45.221Z,2.60
2017-06-05T20:13:14.724Z,2.40
2017-06-05T20:15:44.212Z,2.60
2017-06-05T20:18:13.724Z,2.80
2017-06-05T20:20:43.218Z,2.47
2017-06-05T20:23:12.733Z,2.40
2017-06-05T20:25:42.192Z,2.57
2017-06-05T20:28:11.706Z,2.90
2017-06-05T20:30:41.216Z,2.40
2017-06-05T20:33:10.827Z,2.80
2017-06-05T20:35:40.327Z,2.77
2017-06-05T20:38:09.847Z,2.60
2017-06-05T20:40:39.381Z,2.73
2017-06-05T20:43:08.861Z,2.63
2017-06-05T20:45:38.388Z,2.57
2017-06-05T20:48:07.872Z,3.10
2017-06-05T20:50:37.422Z,2.33
2017-06-05T20:53:06.903Z,2.43
2017-06-05T20:55:36.525Z,2.57
2017-06-05T20:58:06.021Z,2.63
2017-06-05T21:00:35.557Z,2.50
2017-06-05T21:03:05.030Z,2.70
2017-06-05T21:05:34.533Z,2.67
2017-06-05T21:08:04.061Z,2.73
2017-06-05T21:10:33.574Z,2.30
2017-06-05T21:13:03.083Z,2.60
2017-06-05T21:15:32.597Z,2.57
2017-06-05T21:18:02.086Z,2.60
2017-06-05T21:20:31.625Z,2.50
2017-06-05T21:23:01.143Z,3.10
2017-06-05T21:25:30.646Z,3.20
2017-06-05T21:28:00.173Z,2.50
2017-06-05T21:30:29.668Z,2.77
2017-06-05T21:32:59.187Z,2.80
2017-06-05T21:35:28.698Z,2.87
2017-06-05T21:37:58.206Z,3.37
2017-06-05T21:40:27.703Z,2.80
2017-06-05T21:42:57.192Z,2.67
